NCAR-RAP Real-Time Weather Data

Output produced by METARs form (19 November 2018  11:32 UTC)
found at http://weather.rap.ucar.edu/surface/
 
Conditions at: KOCF observed 19 November 2018  11:04 UTC
Temperature: 14.0°C (57°F)
Dewpoint: 14.0°C (57°F) [RH = 100%]
Pressure (altimeter): 30.13 inches Hg (1020.4 mb)
Winds: from the N (360 degrees) at 3 MPH (3 knots; 1.6 m/s)
Visibility: 3 miles (5 km)
Ceiling: 100 feet AGL
Clouds: broken clouds at 100 feet AGL
overcast cloud deck at 7000 feet AGL
Present Weather: BR  (mist)
KOCF 191104Z AUTO 36003KT 3SM BR BKN001 OVC070 14/14 A3013 RMK AO2

Conditions at: KOCF observed 19 November 2018  11:00 UTC
Temperature: 14.0°C (57°F)
Dewpoint: 14.0°C (57°F) [RH = 100%]
Pressure (altimeter): 30.13 inches Hg (1020.4 mb)
Winds: from the N (350 degrees) at 3 MPH (3 knots; 1.6 m/s)
Visibility: 1.25 miles (2.01 km)
Ceiling: 100 feet AGL
Clouds: overcast cloud deck at 100 feet AGL
Present Weather: BR  (mist)
KOCF 191100Z AUTO 35003KT 1 1/4SM BR OVC001 14/14 A3013 RMK AO2

Conditions at: KOCF observed 19 November 2018  10:51 UTC
Temperature: 14.4°C (58°F)
Dewpoint: 14.4°C (58°F) [RH = 100%]
Pressure (altimeter): 30.13 inches Hg (1020.4 mb)
[Sea-level pressure: 1020.5 mb]
Winds: from the N (350 degrees) at 3 MPH (3 knots; 1.6 m/s)
Visibility: 0.75 miles (1.21 km)
Ceiling: 100 feet AGL
Clouds: overcast cloud deck at 100 feet AGL
Present Weather: BR  (mist)
KOCF 191051Z AUTO 35003KT 3/4SM BR OVC001 14/14 A3013 RMK AO2 SLP205 T01440144

Conditions at: KOCF observed 19 November 2018  09:51 UTC
Temperature: 14.4°C (58°F)
Dewpoint: 14.4°C (58°F) [RH = 100%]
Pressure (altimeter): 30.11 inches Hg (1019.7 mb)
[Sea-level pressure: 1019.8 mb]
Winds: calm
Visibility: 0.50 miles (0.80 km)
Ceiling: 100 feet AGL
Clouds: overcast cloud deck at 100 feet AGL
Present Weather: FG  (fog)
KOCF 190951Z AUTO 00000KT 1/2SM FG OVC001 14/14 A3011 RMK AO2 SLP198 T01440144

Conditions at: KOCF observed 19 November 2018  08:51 UTC
Temperature: 14.4°C (58°F)
Dewpoint: 14.4°C (58°F) [RH = 100%]
Pressure (altimeter): 30.11 inches Hg (1019.7 mb)
[Sea-level pressure: 1019.9 mb]
Winds: from the N (360 degrees) at 3 MPH (3 knots; 1.6 m/s)
Visibility: 0.25 miles (0.40 km)
Ceiling: 100 feet AGL
Clouds: overcast cloud deck at 100 feet AGL
Present Weather: FG  (fog)
KOCF 190851Z AUTO 36003KT 1/4SM FG OVC001 14/14 A3011 RMK AO2 SLP199 T01440144 57003

Conditions at: KOCF observed 19 November 2018  08:23 UTC
Temperature: 14.0°C (57°F)
Dewpoint: 14.0°C (57°F) [RH = 100%]
Pressure (altimeter): 30.12 inches Hg (1020.1 mb)
Winds: calm
Visibility: 0.25 miles (0.40 km)
Ceiling: 100 feet AGL
Clouds: overcast cloud deck at 100 feet AGL
Present Weather: FG  (fog)
KOCF 190823Z AUTO 00000KT 1/4SM FG OVC001 14/14 A3012 RMK AO2

Conditions at: KOCF observed 19 November 2018  07:51 UTC
Temperature: 13.9°C (57°F)
Dewpoint: 13.9°C (57°F) [RH = 100%]
Pressure (altimeter): 30.12 inches Hg (1020.1 mb)
[Sea-level pressure: 1020.2 mb]
Winds: from the N (360 degrees) at 3 MPH (3 knots; 1.6 m/s)
Visibility: 0.50 miles (0.80 km)
Ceiling: 100 feet AGL
Clouds: overcast cloud deck at 100 feet AGL
Present Weather: FG  (fog)
KOCF 190751Z AUTO 36003KT 1/2SM FG OVC001 14/14 A3012 RMK AO2 SLP202 T01390139

Conditions at: KOCF observed 19 November 2018  07:43 UTC
Temperature: 14.0°C (57°F)
Dewpoint: 14.0°C (57°F) [RH = 100%]
Pressure (altimeter): 30.12 inches Hg (1020.1 mb)
Winds: from the NNW (340 degrees) at 5 MPH (4 knots; 2.1 m/s)
Visibility: 0.50 miles (0.80 km)
Ceiling: 100 feet AGL
Clouds: overcast cloud deck at 100 feet AGL
Present Weather: FG  (fog)
KOCF 190743Z AUTO 34004KT 1/2SM FG OVC001 14/14 A3012 RMK AO2

Conditions at: KOCF observed 19 November 2018  07:07 UTC
Temperature: 14.0°C (57°F)
Dewpoint: 14.0°C (57°F) [RH = 100%]
Pressure (altimeter): 30.11 inches Hg (1019.7 mb)
Winds: calm
Visibility: 0.25 miles (0.40 km)
Ceiling: 100 feet AGL
Clouds: overcast cloud deck at 100 feet AGL
Present Weather: FG  (fog)
KOCF 190707Z AUTO 00000KT 1/4SM FG OVC001 14/14 A3011 RMK AO2

Conditions at: KOCF observed 19 November 2018  06:51 UTC
Temperature: 12.8°C (55°F)
Dewpoint: 12.8°C (55°F) [RH = 100%]
Pressure (altimeter): 30.12 inches Hg (1020.1 mb)
[Sea-level pressure: 1020.0 mb]
Winds: calm
Visibility: 0.50 miles (0.80 km)
Ceiling: 100 feet AGL
Clouds: overcast cloud deck at 100 feet AGL
Present Weather: FG  (fog)
KOCF 190651Z AUTO 00000KT 1/2SM FG OVC001 13/13 A3012 RMK AO2 SLP200 T01280128

Conditions at: KOCF observed 19 November 2018  06:46 UTC
Temperature: 13.0°C (55°F)
Dewpoint: 13.0°C (55°F) [RH = 100%]
Pressure (altimeter): 30.12 inches Hg (1020.1 mb)
Winds: calm
Visibility: 0.50 miles (0.80 km)
Ceiling: 100 feet AGL
Clouds: overcast cloud deck at 100 feet AGL
Present Weather: FG  (fog)
KOCF 190646Z AUTO 00000KT 1/2SM FG OVC001 13/13 A3012 RMK AO2

Conditions at: KOCF observed 19 November 2018  06:38 UTC
Temperature: 14.0°C (57°F)
Dewpoint: 13.0°C (55°F) [RH = 94%]
Pressure (altimeter): 30.12 inches Hg (1020.1 mb)
Winds: calm
Visibility: 1.00 miles (1.61 km)
Ceiling: 100 feet AGL
Clouds: broken clouds at 100 feet AGL
Present Weather: BR  (mist)
KOCF 190638Z AUTO 00000KT 1SM BR BKN001 14/13 A3012 RMK AO2

Conditions at: KOCF observed 19 November 2018  06:33 UTC
Temperature: 14.0°C (57°F)
Dewpoint: 13.0°C (55°F) [RH = 94%]
Pressure (altimeter): 30.12 inches Hg (1020.1 mb)
Winds: calm
Visibility: 2.50 miles (4.02 km)
Ceiling: 100 feet AGL
Clouds: broken clouds at 100 feet AGL
Present Weather: BR  (mist)
KOCF 190633Z AUTO 00000KT 2 1/2SM BR BKN001 14/13 A3012 RMK AO2

Conditions at: KOCF observed 19 November 2018  06:20 UTC
Temperature: 13.0°C (55°F)
Dewpoint: 12.0°C (54°F) [RH = 94%]
Pressure (altimeter): 30.12 inches Hg (1020.1 mb)
Winds: from the N (350 degrees) at 5 MPH (4 knots; 2.1 m/s)
Visibility: 10 or more miles (16+ km)
Ceiling: at least 12,000 feet AGL
Clouds: few clouds at 100 feet AGL
Present Weather: automated observation with no human augmentation;
there may or may not be significant weather present at this time
KOCF 190620Z AUTO 35004KT 10SM FEW001 13/12 A3012 RMK AO2

Conditions at: KOCF observed 19 November 2018  05:51 UTC
Temperature: 13.3°C (56°F)
Dewpoint: 12.8°C (55°F) [RH = 97%]
Pressure (altimeter): 30.12 inches Hg (1020.1 mb)
[Sea-level pressure: 1020.2 mb]
Winds: calm
Visibility: 10 or more miles (16+ km)
Ceiling: at least 12,000 feet AGL
Clouds: few clouds at 7500 feet AGL
Present Weather: automated observation with no human augmentation;
there may or may not be significant weather present at this time
KOCF 190551Z AUTO 00000KT 10SM FEW075 13/13 A3012 RMK AO2 SLP202 T01330128 10183 20128 58009

Conditions at: KOCF observed 19 November 2018  04:51 UTC
Temperature: 13.3°C (56°F)
Dewpoint: 12.8°C (55°F) [RH = 97%]
Pressure (altimeter): 30.13 inches Hg (1020.4 mb)
[Sea-level pressure: 1020.7 mb]
Winds: calm
Visibility: 10 or more miles (16+ km)
Ceiling: at least 12,000 feet AGL
Clouds: sky clear below 12,000 feet AGL
Present Weather: automated observation with no human augmentation;
there may or may not be significant weather present at this time
KOCF 190451Z AUTO 00000KT 10SM CLR 13/13 A3013 RMK AO2 SLP207 T01330128

Conditions at: KOCF observed 19 November 2018  03:51 UTC
Temperature: 13.3°C (56°F)
Dewpoint: 12.8°C (55°F) [RH = 97%]
Pressure (altimeter): 30.15 inches Hg (1021.1 mb)
[Sea-level pressure: 1021.2 mb]
Winds: calm
Visibility: 10 or more miles (16+ km)
Ceiling: at least 12,000 feet AGL
Clouds: sky clear below 12,000 feet AGL
Present Weather: automated observation with no human augmentation;
there may or may not be significant weather present at this time
KOCF 190351Z AUTO 00000KT 10SM CLR 13/13 A3015 RMK AO2 SLP212 T01330128

Conditions at: KOCF observed 19 November 2018  01:51 UTC
Temperature: 16.1°C (61°F)
Dewpoint: 14.4°C (58°F) [RH = 90%]
Pressure (altimeter): 30.15 inches Hg (1021.1 mb)
[Sea-level pressure: 1021.2 mb]
Winds: calm
Visibility: 10 or more miles (16+ km)
Ceiling: at least 12,000 feet AGL
Clouds: sky clear below 12,000 feet AGL
Present Weather: automated observation with no human augmentation;
there may or may not be significant weather present at this time
KOCF 190151Z AUTO 00000KT 10SM CLR 16/14 A3015 RMK AO2 SLP212 T01610144

Conditions at: KOCF observed 19 November 2018  00:51 UTC
Temperature: 16.7°C (62°F)
Dewpoint: 14.4°C (58°F) [RH = 86%]
Pressure (altimeter): 30.14 inches Hg (1020.7 mb)
[Sea-level pressure: 1021.0 mb]
Winds: calm
Visibility: 10 or more miles (16+ km)
Ceiling: at least 12,000 feet AGL
Clouds: sky clear below 12,000 feet AGL
Present Weather: automated observation with no human augmentation;
there may or may not be significant weather present at this time
KOCF 190051Z AUTO 00000KT 10SM CLR 17/14 A3014 RMK AO2 SLP210 T01670144

Conditions at: KOCF observed 18 November 2018  23:51 UTC
Temperature: 17.8°C (64°F)
Dewpoint: 14.4°C (58°F) [RH = 80%]
Pressure (altimeter): 30.12 inches Hg (1020.1 mb)
[Sea-level pressure: 1020.2 mb]
Winds: calm
Visibility: 10 or more miles (16+ km)
Ceiling: at least 12,000 feet AGL
Clouds: sky clear below 12,000 feet AGL
Present Weather: no significant weather observed at this time
KOCF 182351Z 00000KT 10SM CLR 18/14 A3012 RMK AO2 SLP202 T01780144 10256 20178 402560111 53003

Conditions at: KOCF observed 18 November 2018  22:51 UTC
Temperature: 20.0°C (68°F)
Dewpoint: 14.4°C (58°F) [RH = 70%]
Pressure (altimeter): 30.11 inches Hg (1019.7 mb)
[Sea-level pressure: 1019.9 mb]
Winds: calm
Visibility: 10 or more miles (16+ km)
Ceiling: at least 12,000 feet AGL
Clouds: sky clear below 12,000 feet AGL
Present Weather: no significant weather observed at this time
KOCF 182251Z 00000KT 10SM CLR 20/14 A3011 RMK AO2 SLP199 T02000144

Conditions at: KOCF observed 18 November 2018  21:51 UTC
Temperature: 23.9°C (75°F)
Dewpoint: 13.9°C (57°F) [RH = 54%]
Pressure (altimeter): 30.11 inches Hg (1019.7 mb)
[Sea-level pressure: 1019.7 mb]
Winds: from the N (360 degrees) at 6 MPH (5 knots; 2.6 m/s)
Visibility: 10 or more miles (16+ km)
Ceiling: at least 12,000 feet AGL
Clouds: sky clear below 12,000 feet AGL
Present Weather: no significant weather observed at this time
KOCF 182151Z 36005KT 10SM CLR 24/14 A3011 RMK AO2 SLP197 T02390139

Conditions at: KOCF observed 18 November 2018  20:51 UTC
Temperature: 24.4°C (76°F)
Dewpoint: 13.9°C (57°F) [RH = 52%]
Pressure (altimeter): 30.11 inches Hg (1019.7 mb)
[Sea-level pressure: 1019.8 mb]
Winds: variable direction winds at 3 MPH (3 knots; 1.6 m/s)
Visibility: 10 or more miles (16+ km)
Ceiling: at least 12,000 feet AGL
Clouds: few clouds at 5500 feet AGL
Present Weather: no significant weather observed at this time
KOCF 182051Z VRB03KT 10SM FEW055 24/14 A3011 RMK AO2 SLP198 T02440139 56017

Conditions at: KOCF observed 18 November 2018  19:51 UTC
Temperature: 23.9°C (75°F)
Dewpoint: 14.4°C (58°F) [RH = 55%]
Pressure (altimeter): 30.12 inches Hg (1020.1 mb)
[Sea-level pressure: 1020.2 mb]
Winds: variable direction winds at 3 MPH (3 knots; 1.6 m/s)
Visibility: 10 or more miles (16+ km)
Ceiling: at least 12,000 feet AGL
Clouds: scattered clouds at 5000 feet AGL
Present Weather: no significant weather observed at this time
KOCF 181951Z VRB03KT 10SM SCT050 24/14 A3012 RMK AO2 SLP202 T02390144

Conditions at: KOCF observed 18 November 2018  18:51 UTC
Temperature: 23.9°C (75°F)
Dewpoint: 14.4°C (58°F) [RH = 55%]
Pressure (altimeter): 30.14 inches Hg (1020.7 mb)
[Sea-level pressure: 1020.7 mb]
Winds: from the SE (140 degrees) at 3 MPH (3 knots; 1.6 m/s)
Visibility: 10 or more miles (16+ km)
Ceiling: at least 12,000 feet AGL
Clouds: scattered clouds at 3800 feet AGL
Present Weather: no significant weather observed at this time
KOCF 181851Z 14003KT 10SM SCT038 24/14 A3014 RMK AO2 SLP207 T02390144

Conditions at: KOCF observed 18 November 2018  17:51 UTC
Temperature: 24.4°C (76°F)
Dewpoint: 15.6°C (60°F) [RH = 58%]
Pressure (altimeter): 30.16 inches Hg (1021.4 mb)
[Sea-level pressure: 1021.5 mb]
Winds: from the NW (320 degrees) at 6 MPH (5 knots; 2.6 m/s)
Visibility: 10 or more miles (16+ km)
Ceiling: at least 12,000 feet AGL
Clouds: scattered clouds at 3500 feet AGL
Present Weather: no significant weather observed at this time
KOCF 181751Z COR 32005KT 10SM SCT035 24/16 A3016 RMK AO2 SLP215 T02440156 10250 20122 58019

Conditions at: KOCF observed 18 November 2018  16:51 UTC
Temperature: 22.8°C (73°F)
Dewpoint: 16.1°C (61°F) [RH = 66%]
Pressure (altimeter): 30.19 inches Hg (1022.4 mb)
[Sea-level pressure: 1022.7 mb]
Winds: variable direction winds at 3 MPH (3 knots; 1.6 m/s)
Visibility: 10 or more miles (16+ km)
Ceiling: at least 12,000 feet AGL
Clouds: sky clear below 12,000 feet AGL
Present Weather: no significant weather observed at this time
KOCF 181651Z VRB03KT 10SM CLR 23/16 A3019 RMK AO2 SLP227 T02280161

Conditions at: KOCF observed 18 November 2018  15:51 UTC
Temperature: 22.2°C (72°F)
Dewpoint: 16.7°C (62°F) [RH = 71%]
Pressure (altimeter): 30.21 inches Hg (1023.1 mb)
[Sea-level pressure: 1023.2 mb]
Winds: from the N (360 degrees) at 6 MPH (5 knots; 2.6 m/s)
Visibility: 10 or more miles (16+ km)
Ceiling: at least 12,000 feet AGL
Clouds: sky clear below 12,000 feet AGL
Present Weather: no significant weather observed at this time
KOCF 181551Z 36005KT 10SM CLR 22/17 A3021 RMK AO2 SLP232 T02220167

Conditions at: KOCF observed 18 November 2018  14:51 UTC
Temperature: 20.0°C (68°F)
Dewpoint: 16.1°C (61°F) [RH = 78%]
Pressure (altimeter): 30.22 inches Hg (1023.5 mb)
[Sea-level pressure: 1023.5 mb]
Winds: variable direction winds at 3 MPH (3 knots; 1.6 m/s)
Visibility: 10 or more miles (16+ km)
Ceiling: at least 12,000 feet AGL
Clouds: sky clear below 12,000 feet AGL
Present Weather: no significant weather observed at this time
KOCF 181451Z VRB03KT 10SM CLR 20/16 A3022 RMK AO2 SLP235 T02000161 52010

Conditions at: KOCF observed 18 November 2018  13:51 UTC
Temperature: 17.2°C (63°F)
Dewpoint: 15.6°C (60°F) [RH = 90%]
Pressure (altimeter): 30.21 inches Hg (1023.1 mb)
[Sea-level pressure: 1023.1 mb]
Winds: from the NNE (20 degrees) at 6 MPH (5 knots; 2.6 m/s)
Visibility: 10 or more miles (16+ km)
Ceiling: at least 12,000 feet AGL
Clouds: sky clear below 12,000 feet AGL
Present Weather: no significant weather observed at this time
KOCF 181351Z 02005KT 10SM CLR 17/16 A3021 RMK AO2 SLP231 T01720156

Conditions at: KOCF observed 18 November 2018  12:51 UTC
Temperature: 13.3°C (56°F)
Dewpoint: 13.3°C (56°F) [RH = 100%]
Pressure (altimeter): 30.20 inches Hg (1022.8 mb)
[Sea-level pressure: 1022.9 mb]
Winds: from the N (360 degrees) at 3 MPH (3 knots; 1.6 m/s)
Visibility: 5 miles (8 km)
Ceiling: at least 12,000 feet AGL
Clouds: sky clear below 12,000 feet AGL
Present Weather: BR  (mist)
KOCF 181251Z 36003KT 5SM BR CLR 13/13 A3020 RMK AO2 SLP229 T01330133

Conditions at: KOCF observed 18 November 2018  11:51 UTC
Temperature: 12.2°C (54°F)
Dewpoint: 12.2°C (54°F) [RH = 100%]
Pressure (altimeter): 30.19 inches Hg (1022.4 mb)
[Sea-level pressure: 1022.5 mb]
Winds: from the N (10 degrees) at 3 MPH (3 knots; 1.6 m/s)
Visibility: 4 miles (6 km)
Ceiling: at least 12,000 feet AGL
Clouds: sky clear below 12,000 feet AGL
Present Weather: BR  (mist)
KOCF 181151Z 01003KT 4SM BR CLR 12/12 A3019 RMK AO2 SLP225 T01220122 10122 20111 53010

Conditions at: KOCF observed 18 November 2018  11:04 UTC
Temperature: 12.0°C (54°F)
Dewpoint: 12.0°C (54°F) [RH = 100%]
Pressure (altimeter): 30.17 inches Hg (1021.8 mb)
Winds: from the N (360 degrees) at 5 MPH (4 knots; 2.1 m/s)
Visibility: 2.00 miles (3.22 km)
Ceiling: at least 12,000 feet AGL
Clouds: sky clear below 12,000 feet AGL
Present Weather: BR  (mist)
KOCF 181104Z AUTO 36004KT 2SM BR CLR 12/12 A3017 RMK AO2

Conditions at: KOCF observed 18 November 2018  10:51 UTC
Temperature: 11.1°C (52°F)
Dewpoint: 11.1°C (52°F) [RH = 100%]
Pressure (altimeter): 30.17 inches Hg (1021.8 mb)
[Sea-level pressure: 1021.9 mb]
Winds: from the N (360 degrees) at 5 MPH (4 knots; 2.1 m/s)
Visibility: 7 miles (11 km)
Ceiling: at least 12,000 feet AGL
Clouds: sky clear below 12,000 feet AGL
Present Weather: automated observation with no human augmentation;
there may or may not be significant weather present at this time
KOCF 181051Z AUTO 36004KT 7SM CLR 11/11 A3017 RMK AO2 SLP219 T01110111

Conditions at: KOCF observed 18 November 2018  10:39 UTC
Temperature: 12.0°C (54°F)
Dewpoint: 12.0°C (54°F) [RH = 100%]
Pressure (altimeter): 30.16 inches Hg (1021.4 mb)
Winds: from the N (10 degrees) at 3 MPH (3 knots; 1.6 m/s)
Visibility: 6 miles (10 km)
Ceiling: at least 12,000 feet AGL
Clouds: sky clear below 12,000 feet AGL
Present Weather: BR  (mist)
KOCF 181039Z AUTO 01003KT 6SM BR CLR 12/12 A3016 RMK AO2

Conditions at: KOCF observed 18 November 2018  10:31 UTC
Temperature: 12.0°C (54°F)
Dewpoint: 12.0°C (54°F) [RH = 100%]
Pressure (altimeter): 30.16 inches Hg (1021.4 mb)
Winds: from the N (360 degrees) at 5 MPH (4 knots; 2.1 m/s)
Visibility: 2.50 miles (4.02 km)
Ceiling: at least 12,000 feet AGL
Clouds: sky clear below 12,000 feet AGL
Present Weather: BR  (mist)
KOCF 181031Z AUTO 36004KT 2 1/2SM BR CLR 12/12 A3016 RMK AO2

Conditions at: KOCF observed 18 November 2018  09:51 UTC
Temperature: 11.7°C (53°F)
Dewpoint: 11.7°C (53°F) [RH = 100%]
Pressure (altimeter): 30.15 inches Hg (1021.1 mb)
[Sea-level pressure: 1021.2 mb]
Winds: from the N (350 degrees) at 3 MPH (3 knots; 1.6 m/s)
Visibility: 8 miles (13 km)
Ceiling: at least 12,000 feet AGL
Clouds: sky clear below 12,000 feet AGL
Present Weather: automated observation with no human augmentation;
there may or may not be significant weather present at this time
KOCF 180951Z AUTO 35003KT 8SM CLR 12/12 A3015 RMK AO2 SLP212 T01170117

Conditions at: KOCF observed 18 November 2018  08:51 UTC
Temperature: 11.7°C (53°F)
Dewpoint: 11.1°C (52°F) [RH = 96%]
Pressure (altimeter): 30.16 inches Hg (1021.4 mb)
[Sea-level pressure: 1021.5 mb]
Winds: from the N (360 degrees) at 5 MPH (4 knots; 2.1 m/s)
Visibility: 9 miles (14 km)
Ceiling: at least 12,000 feet AGL
Clouds: sky clear below 12,000 feet AGL
Present Weather: automated observation with no human augmentation;
there may or may not be significant weather present at this time
KOCF 180851Z AUTO 36004KT 9SM CLR 12/11 A3016 RMK AO2 SLP215 T01170111 55006

Conditions at: KOCF observed 18 November 2018  07:51 UTC
Temperature: 12.2°C (54°F)
Dewpoint: 11.7°C (53°F) [RH = 97%]
Pressure (altimeter): 30.16 inches Hg (1021.4 mb)
[Sea-level pressure: 1021.4 mb]
Winds: from the N (350 degrees) at 5 MPH (4 knots; 2.1 m/s)
Visibility: 7 miles (11 km)
Ceiling: at least 12,000 feet AGL
Clouds: sky clear below 12,000 feet AGL
Present Weather: automated observation with no human augmentation;
there may or may not be significant weather present at this time
KOCF 180751Z AUTO 35004KT 7SM CLR 12/12 A3016 RMK AO2 SLP214 T01220117

Conditions at: KOCF observed 18 November 2018  06:51 UTC
Temperature: 11.7°C (53°F)
Dewpoint: 11.7°C (53°F) [RH = 100%]
Pressure (altimeter): 30.16 inches Hg (1021.4 mb)
[Sea-level pressure: 1021.6 mb]
Winds: calm
Visibility: 9 miles (14 km)
Ceiling: at least 12,000 feet AGL
Clouds: sky clear below 12,000 feet AGL
Present Weather: automated observation with no human augmentation;
there may or may not be significant weather present at this time
KOCF 180651Z AUTO 00000KT 9SM CLR 12/12 A3016 RMK AO2 SLP216 T01170117

Conditions at: KOCF observed 18 November 2018  05:51 UTC
Temperature: 12.2°C (54°F)
Dewpoint: 11.7°C (53°F) [RH = 97%]
Pressure (altimeter): 30.17 inches Hg (1021.8 mb)
[Sea-level pressure: 1022.0 mb]
Winds: from the N (350 degrees) at 5 MPH (4 knots; 2.1 m/s)
Visibility: 7 miles (11 km)
Ceiling: at least 12,000 feet AGL
Clouds: sky clear below 12,000 feet AGL
Present Weather: automated observation with no human augmentation;
there may or may not be significant weather present at this time
KOCF 180551Z AUTO 35004KT 7SM CLR 12/12 A3017 RMK AO2 SLP220 T01220117 10161 20117 56002

Conditions at: KOCF observed 18 November 2018  04:51 UTC
Temperature: 11.7°C (53°F)
Dewpoint: 11.1°C (52°F) [RH = 96%]
Pressure (altimeter): 30.18 inches Hg (1022.1 mb)
[Sea-level pressure: 1022.1 mb]
Winds: from the N (350 degrees) at 5 MPH (4 knots; 2.1 m/s)
Visibility: 10 or more miles (16+ km)
Ceiling: at least 12,000 feet AGL
Clouds: sky clear below 12,000 feet AGL
Present Weather: automated observation with no human augmentation;
there may or may not be significant weather present at this time
KOCF 180451Z AUTO 35004KT 10SM CLR 12/11 A3018 RMK AO2 SLP221 T01170111

Conditions at: KOCF observed 18 November 2018  03:51 UTC
Temperature: 12.8°C (55°F)
Dewpoint: 11.7°C (53°F) [RH = 93%]
Pressure (altimeter): 30.18 inches Hg (1022.1 mb)
[Sea-level pressure: 1022.2 mb]
Winds: from the N (360 degrees) at 3 MPH (3 knots; 1.6 m/s)
Visibility: 10 or more miles (16+ km)
Ceiling: at least 12,000 feet AGL
Clouds: sky clear below 12,000 feet AGL
Present Weather: automated observation with no human augmentation;
there may or may not be significant weather present at this time
KOCF 180351Z AUTO 36003KT 10SM CLR 13/12 A3018 RMK AO2 SLP222 T01280117

Conditions at: KOCF observed 18 November 2018  02:51 UTC
Temperature: 13.3°C (56°F)
Dewpoint: 11.7°C (53°F) [RH = 90%]
Pressure (altimeter): 30.18 inches Hg (1022.1 mb)
[Sea-level pressure: 1022.2 mb]
Winds: calm
Visibility: 10 or more miles (16+ km)
Ceiling: at least 12,000 feet AGL
Clouds: sky clear below 12,000 feet AGL
Present Weather: automated observation with no human augmentation;
there may or may not be significant weather present at this time
KOCF 180251Z AUTO 00000KT 10SM CLR 13/12 A3018 RMK AO2 SLP222 T01330117 50002

Conditions at: KOCF observed 18 November 2018  01:51 UTC
Temperature: 14.4°C (58°F)
Dewpoint: 12.2°C (54°F) [RH = 87%]
Pressure (altimeter): 30.18 inches Hg (1022.1 mb)
[Sea-level pressure: 1022.4 mb]
Winds: from the NNE (20 degrees) at 3 MPH (3 knots; 1.6 m/s)
Visibility: 10 or more miles (16+ km)
Ceiling: at least 12,000 feet AGL
Clouds: sky clear below 12,000 feet AGL
Present Weather: automated observation with no human augmentation;
there may or may not be significant weather present at this time
KOCF 180151Z AUTO 02003KT 10SM CLR 14/12 A3018 RMK AO2 SLP224 T01440122

Conditions at: KOCF observed 18 November 2018  00:51 UTC
Temperature: 14.4°C (58°F)
Dewpoint: 10.6°C (51°F) [RH = 78%]
Pressure (altimeter): 30.17 inches Hg (1021.8 mb)
[Sea-level pressure: 1022.0 mb]
Winds: calm
Visibility: 10 or more miles (16+ km)
Ceiling: at least 12,000 feet AGL
Clouds: sky clear below 12,000 feet AGL
Present Weather: automated observation with no human augmentation;
there may or may not be significant weather present at this time
KOCF 180051Z AUTO 00000KT 10SM CLR 14/11 A3017 RMK AO2 SLP220 T01440106

Conditions at: KOCF observed 17 November 2018  23:51 UTC
Temperature: 16.1°C (61°F)
Dewpoint: 10.6°C (51°F) [RH = 70%]
Pressure (altimeter): 30.17 inches Hg (1021.8 mb)
[Sea-level pressure: 1022.1 mb]
Winds: from the N (360 degrees) at 3 MPH (3 knots; 1.6 m/s)
Visibility: 10 or more miles (16+ km)
Ceiling: at least 12,000 feet AGL
Clouds: sky clear below 12,000 feet AGL
Present Weather: no significant weather observed at this time
KOCF 172351Z 36003KT 10SM CLR 16/11 A3017 RMK AO2 SLP221 T01610106 10228 20156 402280028 52009

Conditions at: KOCF observed 17 November 2018  22:51 UTC
Temperature: 16.7°C (62°F)
Dewpoint: 10.0°C (50°F) [RH = 65%]
Pressure (altimeter): 30.17 inches Hg (1021.8 mb)
[Sea-level pressure: 1021.9 mb]
Winds: from the N (350 degrees) at 5 MPH (4 knots; 2.1 m/s)
Visibility: 10 or more miles (16+ km)
Ceiling: at least 12,000 feet AGL
Clouds: sky clear below 12,000 feet AGL
Present Weather: no significant weather observed at this time
KOCF 172251Z 35004KT 10SM CLR 17/10 A3017 RMK AO2 SLP219 T01670100

Conditions at: KOCF observed 17 November 2018  21:51 UTC
Temperature: 21.1°C (70°F)
Dewpoint: 10.0°C (50°F) [RH = 49%]
Pressure (altimeter): 30.15 inches Hg (1021.1 mb)
[Sea-level pressure: 1021.3 mb]
Winds: from the NNE (30 degrees) at 5 MPH (4 knots; 2.1 m/s)
Visibility: 10 or more miles (16+ km)
Ceiling: at least 12,000 feet AGL
Clouds: sky clear below 12,000 feet AGL
Present Weather: no significant weather observed at this time
KOCF 172151Z 03004KT 10SM CLR 21/10 A3015 RMK AO2 SLP213 T02110100

Conditions at: KOCF observed 17 November 2018  20:51 UTC
Temperature: 22.2°C (72°F)
Dewpoint: 8.9°C (48°F) [RH = 43%]
Pressure (altimeter): 30.15 inches Hg (1021.1 mb)
[Sea-level pressure: 1021.1 mb]
Winds: variable direction winds at 3 MPH (3 knots; 1.6 m/s)
Visibility: 10 or more miles (16+ km)
Ceiling: at least 12,000 feet AGL
Clouds: sky clear below 12,000 feet AGL
Present Weather: no significant weather observed at this time
KOCF 172051Z VRB03KT 10SM CLR 22/09 A3015 RMK AO2 SLP211 T02220089 55006

Conditions at: KOCF observed 17 November 2018  19:51 UTC
Temperature: 22.2°C (72°F)
Dewpoint: 7.8°C (46°F) [RH = 40%]
Pressure (altimeter): 30.14 inches Hg (1020.7 mb)
[Sea-level pressure: 1021.0 mb]
Winds: from the NNE (30 degrees) at 5 MPH (4 knots; 2.1 m/s)
Visibility: 10 or more miles (16+ km)
Ceiling: at least 12,000 feet AGL
Clouds: sky clear below 12,000 feet AGL
Present Weather: no significant weather observed at this time
KOCF 171951Z 03004KT 10SM CLR 22/08 A3014 RMK AO2 SLP210 T02220078

Conditions at: KOCF observed 17 November 2018  18:51 UTC
Temperature: 21.7°C (71°F)
Dewpoint: 8.3°C (47°F) [RH = 42%]
Pressure (altimeter): 30.15 inches Hg (1021.1 mb)
[Sea-level pressure: 1021.1 mb]
Winds: from the N (360 degrees) at 3 MPH (3 knots; 1.6 m/s)
Visibility: 10 or more miles (16+ km)
Ceiling: at least 12,000 feet AGL
Clouds: sky clear below 12,000 feet AGL
Present Weather: no significant weather observed at this time
KOCF 171851Z 36003KT 10SM CLR 22/08 A3015 RMK AO2 SLP211 T02170083

Conditions at: KOCF observed 17 November 2018  17:51 UTC
Temperature: 20.6°C (69°F)
Dewpoint: 10.0°C (50°F) [RH = 51%]
Pressure (altimeter): 30.16 inches Hg (1021.4 mb)
[Sea-level pressure: 1021.7 mb]
Winds: from the NE (50 degrees) at 7 MPH (6 knots; 3.1 m/s)
Visibility: 10 or more miles (16+ km)
Ceiling: at least 12,000 feet AGL
Clouds: sky clear below 12,000 feet AGL
Present Weather: no significant weather observed at this time
KOCF 171751Z 05006KT 10SM CLR 21/10 A3016 RMK AO2 SLP217 T02060100 10206 20033 58027

Conditions at: KOCF observed 17 November 2018  16:51 UTC
Temperature: 19.4°C (67°F)
Dewpoint: 10.6°C (51°F) [RH = 57%]
Pressure (altimeter): 30.20 inches Hg (1022.8 mb)
[Sea-level pressure: 1023.1 mb]
Winds: variable direction winds at 3 MPH (3 knots; 1.6 m/s)
Visibility: 10 or more miles (16+ km)
Ceiling: at least 12,000 feet AGL
Clouds: sky clear below 12,000 feet AGL
Present Weather: no significant weather observed at this time
KOCF 171651Z VRB03KT 10SM CLR 19/11 A3020 RMK AO2 SLP231 T01940106

Conditions at: KOCF observed 17 November 2018  15:51 UTC
Temperature: 17.2°C (63°F)
Dewpoint: 9.4°C (49°F) [RH = 60%]
Pressure (altimeter): 30.22 inches Hg (1023.5 mb)
[Sea-level pressure: 1023.8 mb]
Winds: variable direction winds at 6 MPH (5 knots; 2.6 m/s)
Visibility: 10 or more miles (16+ km)
Ceiling: at least 12,000 feet AGL
Clouds: sky clear below 12,000 feet AGL
Present Weather:
SOME DATA ABOVE MAY BE INACCURATE!!!
"$" is an indication the sensor requires maintenance
KOCF 171551Z VRB05KT 10SM CLR 17/09 A3022 RMK AO2 SLP238 T01720094 $

Conditions at: KOCF observed 17 November 2018  14:51 UTC
Temperature: 15.0°C (59°F)
Dewpoint: 7.8°C (46°F) [RH = 62%]
Pressure (altimeter): 30.24 inches Hg (1024.1 mb)
[Sea-level pressure: 1024.5 mb]
Winds: from the N (360 degrees) at 6 MPH (5 knots; 2.6 m/s)
Visibility: 10 or more miles (16+ km)
Ceiling: at least 12,000 feet AGL
Clouds: sky clear below 12,000 feet AGL
Present Weather:
SOME DATA ABOVE MAY BE INACCURATE!!!
"$" is an indication the sensor requires maintenance
KOCF 171451Z 36005KT 10SM CLR 15/08 A3024 RMK AO2 SLP245 T01500078 50009 $

Conditions at: KOCF observed 17 November 2018  13:51 UTC
Temperature: 11.1°C (52°F)
Dewpoint: 6.7°C (44°F) [RH = 74%]
Pressure (altimeter): 30.25 inches Hg (1024.5 mb)
[Sea-level pressure: 1024.6 mb]
Winds: from the N (10 degrees) at 6 MPH (5 knots; 2.6 m/s)
Visibility: 10 or more miles (16+ km)
Ceiling: at least 12,000 feet AGL
Clouds: sky clear below 12,000 feet AGL
Present Weather:
SOME DATA ABOVE MAY BE INACCURATE!!!
"$" is an indication the sensor requires maintenance
KOCF 171351Z 01005KT 10SM CLR 11/07 A3025 RMK AO2 SLP246 T01110067 $

Conditions at: KOCF observed 17 November 2018  13:44 UTC
Temperature: 11.0°C (52°F)
Dewpoint: 7.0°C (45°F) [RH = 76%]
Pressure (altimeter): 30.25 inches Hg (1024.5 mb)
Winds: from the NNE (20 degrees) at 5 MPH (4 knots; 2.1 m/s)
Visibility: 10 or more miles (16+ km)
Ceiling: at least 12,000 feet AGL
Clouds: sky clear below 12,000 feet AGL
Present Weather:
SOME DATA ABOVE MAY BE INACCURATE!!!
"$" is an indication the sensor requires maintenance
KOCF 171344Z 02004KT 10SM CLR 11/07 A3025 RMK AO2 $

Conditions at: KOCF observed 17 November 2018  13:37 UTC
Temperature: 10.0°C (50°F)
Dewpoint: 7.0°C (45°F) [RH = 82%]
Pressure (altimeter): 30.25 inches Hg (1024.5 mb)
Winds: from the N (10 degrees) at 5 MPH (4 knots; 2.1 m/s)
Visibility: 2.50 miles (4.02 km)
Ceiling: at least 12,000 feet AGL
Clouds: sky clear below 12,000 feet AGL
Present Weather: HZ  (haze)
SOME DATA ABOVE MAY BE INACCURATE!!!
"$" is an indication the sensor requires maintenance
KOCF 171337Z 01004KT 2 1/2SM HZ CLR 10/07 A3025 RMK AO2 VIS 1/2V5 $

Conditions at: KOCF observed 17 November 2018  12:51 UTC
Temperature: 5.6°C (42°F)
Dewpoint: 5.0°C (41°F) [RH = 96%]
Pressure (altimeter): 30.23 inches Hg (1023.8 mb)
Winds: calm
Visibility: 10 or more miles (16+ km)
Ceiling: at least 12,000 feet AGL
Clouds: sky clear below 12,000 feet AGL
Present Weather:
SOME DATA ABOVE MAY BE INACCURATE!!!
"$" is an indication the sensor requires maintenance
KOCF 171251Z 00000KT 10SM CLR 06/05 A3023 RMK AO2 SLPNO T00560050 $

Conditions at: KOCF observed 17 November 2018  11:51 UTC
Temperature: 3.3°C (38°F)
Dewpoint: 2.8°C (37°F) [RH = 97%]
Pressure (altimeter): 30.22 inches Hg (1023.5 mb)
Winds: calm
Visibility: 10 or more miles (16+ km)
Ceiling: at least 12,000 feet AGL
Clouds: sky clear below 12,000 feet AGL
Present Weather:
SOME DATA ABOVE MAY BE INACCURATE!!!
"$" is an indication the sensor requires maintenance
KOCF 171151Z COR 00000KT CLR 10SM 03/03 A3022 RMK AO2 SLPNO 7//// T00330028 10050 20028 52013 $